Latest Weather Observations for Katanning RS

IDW60801

Issued at 10:43 am WST Thursday 1 October 2020 (issued every 10 minutes, with the page automatically refreshed every 10 minutes)

About weather observations | Map of weather stations | Latest weather observations for WA | Other Formats
Station Details ID: 010916 Name: KATANNING Lat: -33.69 Lon: 117.61 Height: 320.0 m
Data from the previous 72 hours. | See also: Recent months at Katanning RS
Date/Time
WST
Temp
°C
App
Temp
°C
Dew
Point
°C
Rel
Hum
%
Delta-T
°C
Wind Press
QNH
hPa
Press
MSL
hPa
Rain since
9am
mm
Dir  Spd
km/h
Gust
km/h
Spd
kts
Gust
kts
01/10:30am 18.9 12.4 6.7 45 6.2 WNW 30 46 16 25 1012.2 1011.8 0.0
01/10:00am 18.5 11.6 7.3 48 5.8 WNW 33 48 18 26 1012.4 1011.9 0.0
01/09:30am 17.4 11.9 7.7 53 5.0 WNW 26 37 14 20 1012.4 1011.9 0.0
01/09:07am 16.9 11.0 7.3 53 4.9 WNW 28 46 15 25 1012.1 1011.7 0.0
01/09:00am 17.1 11.2 7.7 54 4.8 WNW 28 37 15 20 1012.1 1011.7 0.0
01/08:30am 16.1 12.1 9.1 63 3.7 WNW 20 33 11 18 1012.4 1011.9 0.0
01/08:00am 14.7 10.8 8.6 67 3.1 NW 19 26 10 14 1012.5 1012.0 0.0
01/07:30am 14.1 10.6 8.7 70 2.8 NW 17 28 9 15 1012.5 1012.4 0.0
01/07:00am 13.7 10.9 8.5 71 2.7 WNW 13 22 7 12 1012.4 1012.3 0.0
01/06:30am 13.4 10.2 8.5 72 2.5 NW 15 22 8 12 1012.1 1012.1 0.0
01/06:00am 13.1 9.1 8.4 73 2.4 WNW 19 33 10 18 1011.8 1011.8 0.0
01/05:30am 13.0 9.4 8.5 74 2.3 WNW 17 26 9 14 1011.7 1011.7 0.0
01/05:00am 12.6 9.8 8.5 76 2.1 NW 13 22 7 12 1011.4 1011.3 0.0
01/04:30am 12.4 9.3 8.7 78 1.9 WNW 15 26 8 14 1011.6 1011.6 0.0
01/04:00am 12.9 9.8 8.8 76 2.1 WNW 15 24 8 13 1011.4 1011.3 0.0
01/03:30am 13.2 10.0 8.5 73 2.4 WNW 15 24 8 13 1011.4 1011.3 0.0
01/03:00am 13.3 9.8 8.8 74 2.3 WNW 17 24 9 13 1011.6 1011.6 0.0
01/02:30am 13.4 9.9 8.7 73 2.4 WNW 17 26 9 14 1011.6 1011.6 0.0
01/02:00am 13.4 9.4 9.1 75 2.2 WNW 20 33 11 18 1011.7 1011.7 0.0
01/01:30am 13.6 10.5 10.2 80 1.8 W 17 28 9 15 1012.0 1012.0 0.0
01/01:00am 13.5 11.0 10.9 84 1.4 WNW 15 24 8 13 1012.2 1012.2 0.0
01/12:30am 13.8 10.5 10.8 82 1.6 WNW 19 28 10 15 1012.6 1012.5 0.0
01/12:00am 14.4 11.0 10.4 77 2.1 WNW 19 26 10 14 1012.8 1012.7 0.0
 
Date/Time
WST
Temp
°C
App
Temp
°C
Dew
Point
°C
Rel
Hum
%
Delta-T
°C
Wind Press
QNH
hPa
Press
MSL
hPa
Rain since
9am
mm
Dir  Spd
km/h
Gust
km/h
Spd
kts
Gust
kts
30/11:30pm 14.3 12.0 10.5 78 2.0 WNW 13 20 7 11 1013.0 1012.9 0.0
30/11:00pm 14.5 11.8 10.3 76 2.2 NW 15 22 8 12 1013.1 1013.0 0.0
30/10:30pm 14.6 12.6 10.2 75 2.3 WNW 11 17 6 9 1013.5 1013.4 0.0
30/10:00pm 14.1 11.2 9.5 74 2.4 NW 15 24 8 13 1013.7 1013.6 0.0
30/09:30pm 14.8 11.1 9.4 70 2.8 NW 19 26 10 14 1013.9 1013.8 0.0
30/09:00pm 15.6 11.7 9.5 67 3.2 NW 20 32 11 17 1014.1 1014.0 0.0
30/08:30pm 15.6 11.9 9.5 67 3.2 WNW 19 30 10 16 1014.2 1014.2 0.0
30/08:00pm 15.6 12.5 10.2 70 2.9 WNW 17 26 9 14 1014.3 1014.3 0.0
30/07:30pm 15.8 12.6 9.9 68 3.1 WNW 17 24 9 13 1014.1 1014.0 0.0
30/07:00pm 16.3 12.7 9.9 66 3.4 WNW 19 26 10 14 1013.9 1013.8 0.0
30/06:30pm 16.2 13.0 9.8 66 3.4 NW 17 26 9 14 1013.9 1013.8 0.0
30/06:00pm 16.4 13.2 9.8 65 3.5 WNW 17 30 9 16 1013.8 1013.7 0.0
30/05:30pm 16.6 12.9 9.5 63 3.8 WNW 19 30 10 16 1013.7 1013.6 0.0
30/05:00pm 17.1 13.3 9.8 62 3.9 WNW 20 35 11 19 1013.6 1013.5 0.0
30/04:30pm 17.9 13.4 10.0 60 4.3 WNW 24 37 13 20 1013.5 1013.4 0.0
30/04:00pm 19.1 14.3 10.4 57 4.8 WNW 26 39 14 21 1013.5 1013.4 0.0
30/03:30pm 19.7 14.8 9.9 53 5.3 NW 26 35 14 19 1013.5 1013.4 0.0
30/03:00pm 20.1 15.6 10.2 53 5.4 WNW 24 35 13 19 1013.6 1013.5 0.0
30/02:30pm 20.0 15.1 10.1 53 5.4 NW 26 41 14 22 1013.9 1013.8 0.0
30/02:00pm 20.2 16.2 10.6 54 5.3 NW 22 33 12 18 1014.0 1013.9 0.0
30/01:30pm 19.2 15.4 9.9 55 5.0 NW 20 33 11 18 1014.6 1014.6 0.0
30/01:00pm 19.3 15.0 9.5 53 5.3 WNW 22 35 12 19 1015.0 1015.0 0.0
30/12:30pm 19.0 15.1 9.5 54 5.1 WNW 20 32 11 17 1015.2 1015.2 0.0
30/12:00pm 18.8 15.4 10.4 58 4.6 NW 19 28 10 15 1015.7 1015.6 0.0
30/11:30am 17.7 14.0 9.6 59 4.3 WNW 19 26 10 14 1016.0 1015.9 0.0
30/11:00am 17.6 13.0 9.8 60 4.2 WNW 24 35 13 19 1016.5 1016.4 0.0
30/10:30am 16.0 12.4 9.9 67 3.2 NW 19 26 10 14 1017.0 1017.0 0.0
30/10:00am 15.0 11.7 9.6 70 2.8 WNW 17 24 9 13 1017.3 1017.3 0.0
30/09:30am 14.2 11.0 9.8 75 2.3 WNW 17 24 9 13 1017.5 1017.5 0.0
30/09:00am 13.7 10.0 9.4 75 2.2 WNW 19 28 10 15 1017.6 1017.6 1.2
30/08:30am 13.4 10.9 9.6 78 2.0 WNW 13 20 7 11 1017.6 1017.6 1.2
30/08:00am 12.9 10.1 9.9 82 1.6 NW 15 20 8 11 1017.7 1017.7 1.2
30/07:30am 11.8 8.8 9.4 85 1.2 NW 15 19 8 10 1017.5 1017.5 1.2
30/07:00am 10.9 9.1 9.3 90 0.8 NW 9 13 5 7 1017.5 1017.5 1.2
30/06:30am 9.1 6.8 7.5 90 0.8 NW 9 11 5 6 1017.3 1017.3 1.2
30/06:00am 8.3 5.8 6.6 89 0.8 NW 9 11 5 6 1017.1 1017.1 1.2
30/05:30am 8.7 6.6 6.8 88 0.9 NW 7 9 4 5 1017.1 1017.1 1.2
30/05:00am 8.8 6.9 6.6 86 1.0 NW 6 9 3 5 1017.0 1017.0 1.2
30/04:30am 9.8 8.1 7.6 86 1.1 WNW 6 7 3 4 1017.0 1017.0 1.2
30/04:00am 10.4 8.8 8.2 86 1.1 NW 6 7 3 4 1016.8 1016.8 1.2
30/03:30am 10.7 9.0 8.3 85 1.2 NW 7 11 4 6 1016.8 1016.8 1.2
30/03:00am 10.9 8.9 8.5 85 1.2 WNW 9 13 5 7 1017.0 1017.0 1.2
30/02:30am 10.9 8.8 8.3 84 1.3 WNW 9 15 5 8 1017.0 1017.0 1.2
30/02:00am 11.1 8.7 8.7 85 1.2 W 11 15 6 8 1017.2 1017.2 1.2
30/01:30am 11.6 9.4 9.5 87 1.1 W 11 17 6 9 1017.4 1017.4 1.2
30/01:00am 11.9 9.9 10.0 88 1.0 W 11 17 6 9 1017.6 1017.6 1.2
30/12:30am 12.1 8.9 9.8 86 1.2 WSW 17 22 9 12 1017.6 1017.6 1.2
30/12:00am 12.4 10.0 10.0 85 1.2 W 13 20 7 11 1017.6 1017.6 1.0
 
Date/Time
WST
Temp
°C
App
Temp
°C
Dew
Point
°C
Rel
Hum
%
Delta-T
°C
Wind Press
QNH
hPa
Press
MSL
hPa
Rain since
9am
mm
Dir  Spd
km/h
Gust
km/h
Spd
kts
Gust
kts
29/11:30pm 12.4 9.6 10.0 85 1.3 W 15 20 8 11 1017.8 1017.8 1.0
29/11:00pm 12.6 10.2 10.0 84 1.4 WNW 13 22 7 12 1017.8 1017.8 1.0
29/10:30pm 12.5 9.6 9.7 83 1.5 WNW 15 19 8 10 1017.9 1017.9 1.0
29/10:00pm 12.8 10.1 10.2 84 1.4 WNW 15 20 8 11 1018.0 1018.0 1.0
29/09:30pm 12.8 10.4 10.0 83 1.5 WNW 13 24 7 13 1018.0 1018.0 1.0
29/09:00pm 13.0 10.3 10.4 84 1.4 WNW 15 20 8 11 1018.1 1018.1 1.0
29/08:30pm 13.0 10.4 10.7 86 1.2 W 15 24 8 13 1018.1 1018.1 1.0
29/08:00pm 13.2 10.7 10.9 86 1.2 W 15 22 8 12 1017.9 1017.9 1.0
29/07:30pm 13.2 10.7 11.1 87 1.1 W 15 24 8 13 1017.8 1017.8 1.0
29/07:00pm 13.8 11.0 11.5 86 1.2 W 17 26 9 14 1017.5 1017.5 0.6
29/06:30pm 15.4 12.3 10.2 71 2.8 WNW 17 26 9 14 1016.9 1016.9 0.2
29/06:00pm 15.1 11.4 10.1 72 2.7 W 20 33 11 18 1016.7 1016.6 0.2
29/05:30pm 16.5 12.3 9.7 64 3.6 WNW 22 35 12 19 1016.3 1016.2 0.2
29/05:00pm 17.0 12.0 9.4 61 4.0 WNW 26 39 14 21 1015.8 1015.7 0.2
29/04:30pm 17.4 12.0 9.6 60 4.2 W 28 41 15 22 1015.5 1015.5 0.2
29/04:00pm 17.9 12.4 9.0 56 4.7 WNW 28 44 15 24 1015.2 1015.2 0.2
29/03:30pm 18.1 11.4 8.1 52 5.2 W 33 54 18 29 1015.2 1015.2 0.2
29/03:09pm 18.0 11.5 9.1 56 4.7 W 33 52 18 28 1015.1 1015.1 0.2
29/03:00pm 18.6 12.7 9.1 54 5.0 WNW 30 41 16 22 1015.0 1015.0 0.2
29/02:30pm 18.6 13.6 9.4 55 4.9 WNW 26 39 14 21 1014.9 1014.9 0.2
29/02:00pm 18.4 11.8 8.4 52 5.2 WNW 33 52 18 28 1015.0 1015.0 0.2
29/01:54pm 18.5 12.4 8.2 51 5.4 WNW 30 52 16 28 1015.0 1015.0 0.2
29/01:30pm 19.3 13.7 8.9 51 5.5 WNW 28 44 15 24 1015.1 1015.1 0.2
29/01:00pm 18.8 14.2 9.6 55 4.9 WNW 24 35 13 19 1015.3 1015.3 0.2
29/12:40pm 18.5 12.6 9.0 54 5.0 WNW 30 48 16 26 1015.5 1015.5 0.2
29/12:30pm 18.7 13.0 9.8 56 4.8 WNW 30 44 16 24 1015.8 1015.7 0.2
29/12:00pm 18.4 12.4 8.7 53 5.1 WNW 30 48 16 26 1015.8 1015.7 0.2
29/11:40am 18.1 12.2 8.9 55 4.9 NW 30 50 16 27 1016.1 1016.0 0.2
29/11:30am 17.9 12.3 8.7 55 4.8 NW 28 43 15 23 1016.0 1015.9 0.2
29/11:00am 17.6 11.7 9.0 57 4.5 WNW 30 43 16 23 1016.4 1016.3 0.2
29/10:30am 17.0 11.8 8.7 58 4.3 WNW 26 35 14 19 1016.7 1016.6 0.2
29/10:00am 16.5 11.5 8.2 58 4.3 WNW 24 39 13 21 1017.1 1017.1 0.2
29/09:30am 16.9 12.5 8.8 59 4.2 NW 22 35 12 19 1017.1 1017.1 0.2
29/09:00am 15.6 11.4 9.7 68 3.1 NW 22 35 12 19 1017.2 1017.2 2.0
29/08:30am 14.0 9.7 9.4 74 2.4 NW 22 30 12 16 1017.7 1017.7 2.0
29/08:00am 12.9 9.9 9.2 78 1.9 NW 15 20 8 11 1017.9 1017.9 2.0
29/07:30am 11.1 8.0 8.7 85 1.2 NNW 15 20 8 11 1017.6 1017.6 2.0
29/07:00am 9.4 6.3 7.2 86 1.1 NNW 13 19 7 10 1017.7 1017.7 2.0
29/06:30am 8.3 6.1 6.3 87 0.9 NNW 7 11 4 6 1017.8 1017.8 2.0
29/06:00am 7.9 5.6 5.9 87 0.9 NNW 7 9 4 5 1017.7 1017.7 2.0
29/05:30am 8.2 5.6 6.0 86 1.0 NW 9 11 5 6 1017.7 1017.7 2.0
29/05:00am 8.2 5.5 5.8 85 1.1 WNW 9 15 5 8 1017.5 1017.5 2.0
29/04:30am 8.0 4.9 5.6 85 1.1 NW 11 15 6 8 1016.9 1016.9 2.0
29/04:00am 7.7 5.0 5.5 86 1.0 NW 9 15 5 8 1016.2 1016.1 2.0
29/03:30am 6.6 4.0 4.1 84 1.1 NW 7 9 4 5 1016.3 1016.2 2.0
29/03:00am 7.5 4.6 4.6 82 1.3 NW 9 13 5 7 1016.4 1016.3 2.0
29/02:30am 8.0 5.1 4.9 81 1.4 WNW 9 13 5 7 1016.7 1016.6 2.0
29/02:00am 7.4 4.9 4.7 83 1.2 WNW 7 9 4 5 1017.0 1017.0 2.0
29/01:30am 7.0 4.0 4.3 83 1.2 WNW 9 9 5 5 1017.3 1017.3 2.0
29/01:00am 7.3 4.4 4.4 82 1.3 W 9 11 5 6 1017.7 1017.7 2.0
29/12:30am 7.9 4.6 4.5 79 1.5 W 11 15 6 8 1018.2 1018.2 2.0
29/12:00am 8.8 5.2 4.8 76 1.8 W 13 19 7 10 1018.4 1018.4 2.0
 
Date/Time
WST
Temp
°C
App
Temp
°C
Dew
Point
°C
Rel
Hum
%
Delta-T
°C
Wind Press
QNH
hPa
Press
MSL
hPa
Rain since
9am
mm
Dir  Spd
km/h
Gust
km/h
Spd
kts
Gust
kts
28/11:30pm 9.3 5.0 5.3 76 1.8 W 17 20 9 11 1018.1 1018.1 2.0
28/11:00pm 9.7 5.8 5.3 74 2.0 W 15 19 8 10 1017.9 1017.9 2.0
28/10:30pm 10.3 6.1 5.7 73 2.2 W 17 24 9 13 1018.2 1018.2 2.0
28/10:00pm 10.7 6.9 5.9 72 2.3 W 15 22 8 12 1018.2 1018.2 2.0
28/09:30pm 11.3 8.0 6.2 71 2.4 WNW 13 19 7 10 1018.2 1018.2 2.0
28/09:00pm 11.8 7.7 6.3 69 2.6 WNW 17 26 9 14 1018.5 1018.5 2.0
28/08:30pm 11.8 8.7 5.7 66 2.9 WNW 11 13 6 7 1018.2 1018.2 2.0
28/08:00pm 12.4 9.7 5.8 64 3.1 WNW 9 15 5 8 1018.1 1018.1 2.0
28/07:30pm 12.9 9.9 5.8 62 3.4 WNW 11 17 6 9 1017.9 1017.9 2.0
28/07:00pm 13.1 10.5 6.0 62 3.4 WNW 9 13 5 7 1017.4 1017.4 2.0
28/06:30pm 14.0 11.0 5.9 58 3.9 WNW 11 15 6 8 1017.1 1017.1 2.0
28/06:00pm 15.4 12.7 7.2 58 4.1 W 11 19 6 10 1016.8 1016.8 2.0
28/05:30pm 17.1 13.3 7.5 53 4.9 W 17 24 9 13 1016.4 1016.3 2.0
28/05:00pm 17.2 13.1 7.8 54 4.8 W 19 30 10 16 1016.1 1016.0 2.0
28/04:30pm 17.4 13.3 7.7 53 5.0 WSW 19 30 10 16 1016.0 1015.9 2.0
28/04:00pm 18.1 14.1 8.9 55 4.9 W 20 26 11 14 1015.8 1015.7 2.0
28/03:30pm 18.2 13.7 8.5 53 5.1 WSW 22 32 12 17 1015.5 1015.5 2.0
28/03:00pm 17.4 14.0 9.3 59 4.3 WSW 17 24 9 13 1015.4 1015.4 2.0
28/02:30pm 17.5 14.3 9.9 61 4.1 WSW 17 24 9 13 1015.7 1015.6 2.0
28/02:00pm 16.4 13.2 11.1 71 2.9 WSW 19 26 10 14 1016.0 1015.9 2.0
28/01:30pm 15.0 13.9 12.1 83 1.6 W 9 13 5 7 1016.3 1016.2 2.0
28/01:00pm 14.2 9.3 9.8 75 2.3 WSW 26 37 14 20 1016.5 1016.4 1.0
28/12:44pm 16.3 11.7 9.7 65 3.5 W 24 39 13 21 1016.4 1016.3 1.0
28/12:30pm 16.9 14.7 10.7 67 3.4 NW 13 19 7 10 1016.3 1016.2 1.0
28/12:00pm 16.4 13.7 10.3 67 3.3 WNW 15 24 8 13 1016.5 1016.4 1.0
28/11:30am 15.4 12.5 11.0 75 2.4 W 17 24 9 13 1016.7 1016.6 1.0
28/11:00am 14.2 12.2 11.4 83 1.5 W 13 19 7 10 1017.0 1017.0 1.0

Other formats

Comma delimited format used in spreadsheet applications
http://www.bom.gov.au/fwo/IDW60801/IDW60801.94641.axf

JavaScript Object Notation format (JSON) in row-major order
http://www.bom.gov.au/fwo/IDW60801/IDW60801.94641.json

Data quality

Most of these data are generated automatically and are frequently updated. Quality checks on data are not normally performed. It is possible for incorrect values to appear. Refer to information at About Latest Weather Observations and please check the disclaimer before using these data.